sensor_id;sensor_type;location;lat;lon;timestamp;P1;durP1;ratioP1;P2;durP2;ratioP2
59127;SDS011;44912;52.754;5.994;2023-04-27T00:02:24;11.88;;;5.63;;
59127;SDS011;44912;52.754;5.994;2023-04-27T00:04:49;11.45;;;5.93;;
59127;SDS011;44912;52.754;5.994;2023-04-27T00:07:15;10.65;;;6.32;;
59127;SDS011;44912;52.754;5.994;2023-04-27T00:09:41;10.73;;;6.20;;
59127;SDS011;44912;52.754;5.994;2023-04-27T00:12:06;11.85;;;6.90;;
59127;SDS011;44912;52.754;5.994;2023-04-27T00:14:32;11.45;;;6.60;;
59127;SDS011;44912;52.754;5.994;2023-04-27T00:16:57;11.90;;;6.38;;
59127;SDS011;44912;52.754;5.994;2023-04-27T00:19:23;11.10;;;6.80;;
59127;SDS011;44912;52.754;5.994;2023-04-27T00:21:48;35.13;;;6.82;;
59127;SDS011;44912;52.754;5.994;2023-04-27T00:24:14;33.33;;;7.18;;
59127;SDS011;44912;52.754;5.994;2023-04-27T00:26:40;52.80;;;8.23;;
59127;SDS011;44912;52.754;5.994;2023-04-27T00:29:05;183.63;;;11.60;;
59127;SDS011;44912;52.754;5.994;2023-04-27T00:31:31;17.25;;;6.55;;
59127;SDS011;44912;52.754;5.994;2023-04-27T00:33:56;11.40;;;6.97;;
59127;SDS011;44912;52.754;5.994;2023-04-27T00:36:22;14.70;;;6.72;;
59127;SDS011;44912;52.754;5.994;2023-04-27T00:38:47;29.95;;;7.72;;
59127;SDS011;44912;52.754;5.994;2023-04-27T00:41:13;13.65;;;7.72;;
59127;SDS011;44912;52.754;5.994;2023-04-27T00:43:42;12.00;;;6.95;;
59127;SDS011;44912;52.754;5.994;2023-04-27T00:46:09;12.73;;;7.00;;
59127;SDS011;44912;52.754;5.994;2023-04-27T00:48:37;12.15;;;7.50;;
59127;SDS011;44912;52.754;5.994;2023-04-27T00:51:03;13.30;;;7.38;;
59127;SDS011;44912;52.754;5.994;2023-04-27T00:53:31;16.35;;;7.95;;
59127;SDS011;44912;52.754;5.994;2023-04-27T00:55:57;14.68;;;8.07;;
59127;SDS011;44912;52.754;5.994;2023-04-27T00:58:23;12.40;;;7.80;;
59127;SDS011;44912;52.754;5.994;2023-04-27T01:00:49;11.13;;;6.47;;
59127;SDS011;44912;52.754;5.994;2023-04-27T01:03:16;14.27;;;7.50;;
59127;SDS011;44912;52.754;5.994;2023-04-27T01:05:42;12.15;;;7.50;;
59127;SDS011;44912;52.754;5.994;2023-04-27T01:08:08;13.23;;;7.20;;
59127;SDS011;44912;52.754;5.994;2023-04-27T01:10:34;12.95;;;8.07;;
59127;SDS011;44912;52.754;5.994;2023-04-27T01:13:01;15.63;;;8.07;;
59127;SDS011;44912;52.754;5.994;2023-04-27T01:15:27;12.95;;;8.02;;
59127;SDS011;44912;52.754;5.994;2023-04-27T01:17:56;13.38;;;8.18;;
59127;SDS011;44912;52.754;5.994;2023-04-27T01:20:25;20.48;;;6.85;;
59127;SDS011;44912;52.754;5.994;2023-04-27T01:22:57;10.48;;;6.75;;
59127;SDS011;44912;52.754;5.994;2023-04-27T01:25:23;26.95;;;7.85;;
59127;SDS011;44912;52.754;5.994;2023-04-27T01:27:49;51.40;;;7.80;;
59127;SDS011;44912;52.754;5.994;2023-04-27T01:30:14;12.30;;;5.88;;
59127;SDS011;44912;52.754;5.994;2023-04-27T01:32:40;11.73;;;6.70;;
59127;SDS011;44912;52.754;5.994;2023-04-27T01:35:06;12.40;;;6.93;;
59127;SDS011;44912;52.754;5.994;2023-04-27T01:37:32;11.63;;;6.32;;
59127;SDS011;44912;52.754;5.994;2023-04-27T01:39:58;882.08;;;38.65;;
59127;SDS011;44912;52.754;5.994;2023-04-27T01:42:24;614.85;;;25.85;;
59127;SDS011;44912;52.754;5.994;2023-04-27T01:44:50;332.30;;;16.48;;
59127;SDS011;44912;52.754;5.994;2023-04-27T01:47:15;214.02;;;12.05;;
59127;SDS011;44912;52.754;5.994;2023-04-27T01:49:41;9.38;;;5.13;;
59127;SDS011;44912;52.754;5.994;2023-04-27T01:52:07;16.92;;;6.00;;
59127;SDS011;44912;52.754;5.994;2023-04-27T01:54:32;10.27;;;6.20;;
59127;SDS011;44912;52.754;5.994;2023-04-27T01:56:58;12.18;;;6.32;;
59127;SDS011;44912;52.754;5.994;2023-04-27T01:59:24;18.05;;;6.63;;
59127;SDS011;44912;52.754;5.994;2023-04-27T02:01:49;13.65;;;6.20;;
59127;SDS011;44912;52.754;5.994;2023-04-27T02:04:15;12.73;;;6.70;;
59127;SDS011;44912;52.754;5.994;2023-04-27T02:06:40;14.63;;;6.38;;
59127;SDS011;44912;52.754;5.994;2023-04-27T02:09:06;42.42;;;6.28;;
59127;SDS011;44912;52.754;5.994;2023-04-27T02:11:31;36.78;;;5.00;;
59127;SDS011;44912;52.754;5.994;2023-04-27T02:13:57;14.13;;;3.83;;
59127;SDS011;44912;52.754;5.994;2023-04-27T02:16:22;5.95;;;3.50;;
59127;SDS011;44912;52.754;5.994;2023-04-27T02:18:48;14.68;;;3.67;;
59127;SDS011;44912;52.754;5.994;2023-04-27T02:21:13;7.57;;;3.83;;
59127;SDS011;44912;52.754;5.994;2023-04-27T02:23:40;8.48;;;4.72;;
59127;SDS011;44912;52.754;5.994;2023-04-27T02:26:05;11.48;;;6.03;;
59127;SDS011;44912;52.754;5.994;2023-04-27T02:28:31;10.27;;;5.72;;
59127;SDS011;44912;52.754;5.994;2023-04-27T02:30:56;10.05;;;5.80;;
59127;SDS011;44912;52.754;5.994;2023-04-27T02:33:22;10.18;;;5.78;;
59127;SDS011;44912;52.754;5.994;2023-04-27T02:35:48;9.77;;;5.90;;
59127;SDS011;44912;52.754;5.994;2023-04-27T02:38:13;10.07;;;5.80;;
59127;SDS011;44912;52.754;5.994;2023-04-27T02:40:39;9.52;;;6.03;;
59127;SDS011;44912;52.754;5.994;2023-04-27T02:43:05;11.18;;;6.15;;
59127;SDS011;44912;52.754;5.994;2023-04-27T02:45:30;8.70;;;5.38;;
59127;SDS011;44912;52.754;5.994;2023-04-27T02:47:56;11.13;;;5.70;;
59127;SDS011;44912;52.754;5.994;2023-04-27T02:50:22;11.20;;;6.70;;
59127;SDS011;44912;52.754;5.994;2023-04-27T02:52:47;13.95;;;7.07;;
59127;SDS011;44912;52.754;5.994;2023-04-27T02:55:13;11.32;;;6.45;;
59127;SDS011;44912;52.754;5.994;2023-04-27T02:57:39;10.52;;;6.32;;
59127;SDS011;44912;52.754;5.994;2023-04-27T03:00:05;11.23;;;6.63;;
59127;SDS011;44912;52.754;5.994;2023-04-27T03:02:33;15.07;;;8.18;;
59127;SDS011;44912;52.754;5.994;2023-04-27T03:04:58;15.65;;;8.70;;
59127;SDS011;44912;52.754;5.994;2023-04-27T03:07:24;12.10;;;7.05;;
59127;SDS011;44912;52.754;5.994;2023-04-27T03:09:49;13.25;;;7.53;;
59127;SDS011;44912;52.754;5.994;2023-04-27T03:12:15;13.15;;;8.02;;
59127;SDS011;44912;52.754;5.994;2023-04-27T03:14:40;12.80;;;7.50;;
59127;SDS011;44912;52.754;5.994;2023-04-27T03:17:06;12.45;;;7.40;;
59127;SDS011;44912;52.754;5.994;2023-04-27T03:19:32;11.45;;;7.13;;
59127;SDS011;44912;52.754;5.994;2023-04-27T03:21:57;17.55;;;8.73;;
59127;SDS011;44912;52.754;5.994;2023-04-27T03:24:23;16.20;;;8.13;;
59127;SDS011;44912;52.754;5.994;2023-04-27T03:26:49;12.75;;;7.75;;
59127;SDS011;44912;52.754;5.994;2023-04-27T03:29:16;11.65;;;7.78;;
59127;SDS011;44912;52.754;5.994;2023-04-27T03:31:42;12.93;;;7.35;;
59127;SDS011;44912;52.754;5.994;2023-04-27T03:34:07;12.80;;;7.68;;
59127;SDS011;44912;52.754;5.994;2023-04-27T03:36:33;11.90;;;6.18;;
59127;SDS011;44912;52.754;5.994;2023-04-27T03:38:58;12.30;;;6.93;;
59127;SDS011;44912;52.754;5.994;2023-04-27T03:41:24;11.35;;;7.20;;
59127;SDS011;44912;52.754;5.994;2023-04-27T03:43:50;11.98;;;6.85;;
59127;SDS011;44912;52.754;5.994;2023-04-27T03:46:17;10.35;;;6.43;;
59127;SDS011;44912;52.754;5.994;2023-04-27T03:48:42;10.35;;;5.47;;
59127;SDS011;44912;52.754;5.994;2023-04-27T03:51:08;12.40;;;6.40;;
59127;SDS011;44912;52.754;5.994;2023-04-27T03:53:34;10.80;;;6.25;;
59127;SDS011;44912;52.754;5.994;2023-04-27T03:56:00;14.27;;;6.80;;
59127;SDS011;44912;52.754;5.994;2023-04-27T03:58:26;13.73;;;6.85;;
59127;SDS011;44912;52.754;5.994;2023-04-27T04:00:51;13.10;;;7.05;;
59127;SDS011;44912;52.754;5.994;2023-04-27T04:03:18;11.65;;;6.93;;
59127;SDS011;44912;52.754;5.994;2023-04-27T04:05:44;13.20;;;7.47;;
59127;SDS011;44912;52.754;5.994;2023-04-27T04:08:11;14.40;;;7.80;;
59127;SDS011;44912;52.754;5.994;2023-04-27T04:10:37;14.70;;;8.45;;
59127;SDS011;44912;52.754;5.994;2023-04-27T04:13:03;136.32;;;11.45;;
59127;SDS011;44912;52.754;5.994;2023-04-27T04:15:28;375.02;;;19.00;;
59127;SDS011;44912;52.754;5.994;2023-04-27T04:17:54;65.07;;;8.30;;
59127;SDS011;44912;52.754;5.994;2023-04-27T04:20:20;11.63;;;6.85;;
59127;SDS011;44912;52.754;5.994;2023-04-27T04:22:46;12.40;;;7.05;;
59127;SDS011;44912;52.754;5.994;2023-04-27T04:25:12;12.52;;;7.25;;
59127;SDS011;44912;52.754;5.994;2023-04-27T04:27:38;12.13;;;7.40;;
59127;SDS011;44912;52.754;5.994;2023-04-27T04:30:04;15.13;;;7.72;;
59127;SDS011;44912;52.754;5.994;2023-04-27T04:32:31;15.00;;;7.30;;
59127;SDS011;44912;52.754;5.994;2023-04-27T04:34:57;11.57;;;6.93;;
59127;SDS011;44912;52.754;5.994;2023-04-27T04:37:25;15.10;;;7.00;;
59127;SDS011;44912;52.754;5.994;2023-04-27T04:39:51;13.18;;;6.95;;
59127;SDS011;44912;52.754;5.994;2023-04-27T04:42:16;12.68;;;7.47;;
59127;SDS011;44912;52.754;5.994;2023-04-27T04:44:42;13.80;;;6.82;;
59127;SDS011;44912;52.754;5.994;2023-04-27T04:47:08;12.27;;;7.70;;
59127;SDS011;44912;52.754;5.994;2023-04-27T04:49:34;12.75;;;7.35;;
59127;SDS011;44912;52.754;5.994;2023-04-27T04:52:00;11.25;;;6.90;;
59127;SDS011;44912;52.754;5.994;2023-04-27T04:54:25;13.57;;;7.30;;
59127;SDS011;44912;52.754;5.994;2023-04-27T04:56:51;12.77;;;6.47;;
59127;SDS011;44912;52.754;5.994;2023-04-27T04:59:17;12.65;;;7.53;;
59127;SDS011;44912;52.754;5.994;2023-04-27T05:01:42;13.77;;;6.95;;
59127;SDS011;44912;52.754;5.994;2023-04-27T05:04:08;12.43;;;6.72;;
59127;SDS011;44912;52.754;5.994;2023-04-27T05:06:34;12.68;;;6.80;;
59127;SDS011;44912;52.754;5.994;2023-04-27T05:09:00;11.20;;;6.53;;
59127;SDS011;44912;52.754;5.994;2023-04-27T05:11:26;11.05;;;6.35;;
59127;SDS011;44912;52.754;5.994;2023-04-27T05:13:51;11.32;;;7.13;;
59127;SDS011;44912;52.754;5.994;2023-04-27T05:16:17;12.40;;;7.22;;
59127;SDS011;44912;52.754;5.994;2023-04-27T05:18:43;11.90;;;7.03;;
59127;SDS011;44912;52.754;5.994;2023-04-27T05:21:14;12.35;;;6.22;;
59127;SDS011;44912;52.754;5.994;2023-04-27T05:23:41;11.32;;;6.15;;
59127;SDS011;44912;52.754;5.994;2023-04-27T05:26:13;10.90;;;6.90;;
59127;SDS011;44912;52.754;5.994;2023-04-27T05:28:42;12.45;;;6.68;;
59127;SDS011;44912;52.754;5.994;2023-04-27T05:31:08;13.48;;;7.03;;
59127;SDS011;44912;52.754;5.994;2023-04-27T05:33:34;12.50;;;7.63;;
59127;SDS011;44912;52.754;5.994;2023-04-27T05:35:59;13.70;;;7.68;;
59127;SDS011;44912;52.754;5.994;2023-04-27T05:38:25;12.85;;;6.82;;
59127;SDS011;44912;52.754;5.994;2023-04-27T05:40:54;12.35;;;7.45;;
59127;SDS011;44912;52.754;5.994;2023-04-27T05:43:21;13.40;;;7.22;;
59127;SDS011;44912;52.754;5.994;2023-04-27T05:45:46;11.48;;;7.13;;
59127;SDS011;44912;52.754;5.994;2023-04-27T05:48:12;13.02;;;7.28;;
59127;SDS011;44912;52.754;5.994;2023-04-27T05:50:38;11.25;;;6.88;;
59127;SDS011;44912;52.754;5.994;2023-04-27T05:53:03;12.10;;;7.30;;
59127;SDS011;44912;52.754;5.994;2023-04-27T05:55:30;12.38;;;7.10;;
59127;SDS011;44912;52.754;5.994;2023-04-27T05:57:55;13.30;;;7.45;;
59127;SDS011;44912;52.754;5.994;2023-04-27T06:00:21;12.20;;;7.60;;
59127;SDS011;44912;52.754;5.994;2023-04-27T06:02:47;12.23;;;8.02;;
59127;SDS011;44912;52.754;5.994;2023-04-27T06:05:12;13.05;;;7.60;;
59127;SDS011;44912;52.754;5.994;2023-04-27T06:07:38;15.50;;;8.60;;
59127;SDS011;44912;52.754;5.994;2023-04-27T06:10:04;15.43;;;8.35;;
59127;SDS011;44912;52.754;5.994;2023-04-27T06:12:30;15.13;;;8.73;;
59127;SDS011;44912;52.754;5.994;2023-04-27T06:14:56;16.40;;;9.15;;
59127;SDS011;44912;52.754;5.994;2023-04-27T06:17:21;13.20;;;8.65;;
59127;SDS011;44912;52.754;5.994;2023-04-27T06:19:47;15.25;;;9.18;;
59127;SDS011;44912;52.754;5.994;2023-04-27T06:22:12;15.43;;;8.95;;
59127;SDS011;44912;52.754;5.994;2023-04-27T06:24:38;13.50;;;8.70;;
59127;SDS011;44912;52.754;5.994;2023-04-27T06:27:05;13.40;;;8.05;;
59127;SDS011;44912;52.754;5.994;2023-04-27T06:29:30;14.90;;;7.85;;
59127;SDS011;44912;52.754;5.994;2023-04-27T06:31:56;17.10;;;7.90;;
59127;SDS011;44912;52.754;5.994;2023-04-27T06:34:21;13.70;;;8.38;;
59127;SDS011;44912;52.754;5.994;2023-04-27T06:36:47;12.65;;;6.97;;
59127;SDS011;44912;52.754;5.994;2023-04-27T06:39:12;11.75;;;6.40;;
59127;SDS011;44912;52.754;5.994;2023-04-27T06:41:38;10.82;;;5.75;;
59127;SDS011;44912;52.754;5.994;2023-04-27T06:44:03;11.18;;;5.57;;
59127;SDS011;44912;52.754;5.994;2023-04-27T06:46:29;9.65;;;5.70;;
59127;SDS011;44912;52.754;5.994;2023-04-27T06:48:55;13.48;;;5.50;;
59127;SDS011;44912;52.754;5.994;2023-04-27T06:51:20;12.10;;;5.78;;
59127;SDS011;44912;52.754;5.994;2023-04-27T06:53:46;9.13;;;4.32;;
59127;SDS011;44912;52.754;5.994;2023-04-27T06:56:11;10.10;;;4.53;;
59127;SDS011;44912;52.754;5.994;2023-04-27T06:58:37;10.52;;;4.28;;
59127;SDS011;44912;52.754;5.994;2023-04-27T07:01:03;8.18;;;4.18;;
59127;SDS011;44912;52.754;5.994;2023-04-27T07:03:29;8.38;;;3.42;;
59127;SDS011;44912;52.754;5.994;2023-04-27T07:05:55;7.90;;;3.30;;
59127;SDS011;44912;52.754;5.994;2023-04-27T07:08:23;7.10;;;3.17;;
59127;SDS011;44912;52.754;5.994;2023-04-27T07:10:48;6.72;;;2.88;;
59127;SDS011;44912;52.754;5.994;2023-04-27T07:13:14;5.75;;;2.78;;
59127;SDS011;44912;52.754;5.994;2023-04-27T07:15:40;6.80;;;2.40;;
59127;SDS011;44912;52.754;5.994;2023-04-27T07:18:05;8.43;;;2.80;;
59127;SDS011;44912;52.754;5.994;2023-04-27T07:20:31;7.28;;;2.63;;
59127;SDS011;44912;52.754;5.994;2023-04-27T07:22:57;6.55;;;2.38;;
59127;SDS011;44912;52.754;5.994;2023-04-27T07:25:22;7.78;;;2.45;;
59127;SDS011;44912;52.754;5.994;2023-04-27T07:27:48;6.40;;;2.28;;
59127;SDS011;44912;52.754;5.994;2023-04-27T07:30:13;7.35;;;2.17;;
59127;SDS011;44912;52.754;5.994;2023-04-27T07:32:39;9.80;;;2.75;;
59127;SDS011;44912;52.754;5.994;2023-04-27T07:35:06;6.32;;;2.53;;
59127;SDS011;44912;52.754;5.994;2023-04-27T07:37:33;7.72;;;2.42;;
59127;SDS011;44912;52.754;5.994;2023-04-27T07:39:58;7.95;;;2.35;;
59127;SDS011;44912;52.754;5.994;2023-04-27T07:42:26;9.57;;;2.95;;
59127;SDS011;44912;52.754;5.994;2023-04-27T07:44:51;7.88;;;2.90;;
59127;SDS011;44912;52.754;5.994;2023-04-27T07:47:18;11.18;;;3.95;;
59127;SDS011;44912;52.754;5.994;2023-04-27T07:49:44;7.10;;;3.08;;
59127;SDS011;44912;52.754;5.994;2023-04-27T07:52:13;8.38;;;2.90;;
59127;SDS011;44912;52.754;5.994;2023-04-27T07:54:39;7.43;;;2.42;;
59127;SDS011;44912;52.754;5.994;2023-04-27T07:57:08;8.95;;;2.55;;
59127;SDS011;44912;52.754;5.994;2023-04-27T07:59:35;9.27;;;2.75;;
59127;SDS011;44912;52.754;5.994;2023-04-27T08:02:01;7.05;;;2.63;;
59127;SDS011;44912;52.754;5.994;2023-04-27T08:04:27;7.55;;;2.90;;
59127;SDS011;44912;52.754;5.994;2023-04-27T08:06:52;5.55;;;2.70;;
59127;SDS011;44912;52.754;5.994;2023-04-27T08:09:18;5.63;;;2.95;;
59127;SDS011;44912;52.754;5.994;2023-04-27T08:11:43;10.02;;;2.60;;
59127;SDS011;44912;52.754;5.994;2023-04-27T08:14:09;6.97;;;2.65;;
59127;SDS011;44912;52.754;5.994;2023-04-27T08:16:38;6.97;;;2.80;;
59127;SDS011;44912;52.754;5.994;2023-04-27T08:19:08;6.60;;;2.60;;
59127;SDS011;44912;52.754;5.994;2023-04-27T08:21:34;6.15;;;2.22;;
59127;SDS011;44912;52.754;5.994;2023-04-27T08:24:01;6.07;;;2.53;;
59127;SDS011;44912;52.754;5.994;2023-04-27T08:26:27;6.45;;;2.35;;
59127;SDS011;44912;52.754;5.994;2023-04-27T08:28:53;4.72;;;2.33;;
59127;SDS011;44912;52.754;5.994;2023-04-27T08:31:20;6.03;;;2.30;;
59127;SDS011;44912;52.754;5.994;2023-04-27T08:33:46;5.55;;;2.15;;
59127;SDS011;44912;52.754;5.994;2023-04-27T08:36:12;5.82;;;2.28;;
59127;SDS011;44912;52.754;5.994;2023-04-27T08:38:37;6.70;;;2.17;;
59127;SDS011;44912;52.754;5.994;2023-04-27T08:41:03;5.43;;;2.17;;
59127;SDS011;44912;52.754;5.994;2023-04-27T08:43:35;4.60;;;1.90;;
59127;SDS011;44912;52.754;5.994;2023-04-27T08:46:00;4.50;;;1.98;;
59127;SDS011;44912;52.754;5.994;2023-04-27T08:48:27;5.75;;;1.73;;
59127;SDS011;44912;52.754;5.994;2023-04-27T08:50:53;4.43;;;2.03;;
59127;SDS011;44912;52.754;5.994;2023-04-27T08:53:21;6.07;;;1.80;;
59127;SDS011;44912;52.754;5.994;2023-04-27T08:55:48;6.57;;;2.55;;
59127;SDS011;44912;52.754;5.994;2023-04-27T08:58:14;6.20;;;2.22;;
59127;SDS011;44912;52.754;5.994;2023-04-27T09:00:40;5.18;;;2.47;;
59127;SDS011;44912;52.754;5.994;2023-04-27T09:03:16;7.50;;;2.60;;
59127;SDS011;44912;52.754;5.994;2023-04-27T09:05:46;5.65;;;2.05;;
59127;SDS011;44912;52.754;5.994;2023-04-27T09:08:12;5.93;;;2.30;;
59127;SDS011;44912;52.754;5.994;2023-04-27T09:10:48;5.00;;;2.25;;
59127;SDS011;44912;52.754;5.994;2023-04-27T09:13:15;5.65;;;2.40;;
59127;SDS011;44912;52.754;5.994;2023-04-27T09:15:44;5.90;;;2.33;;
59127;SDS011;44912;52.754;5.994;2023-04-27T09:18:15;7.53;;;2.40;;
59127;SDS011;44912;52.754;5.994;2023-04-27T09:20:43;6.32;;;2.28;;
59127;SDS011;44912;52.754;5.994;2023-04-27T09:23:28;7.57;;;2.72;;
59127;SDS011;44912;52.754;5.994;2023-04-27T09:26:00;6.40;;;2.20;;
59127;SDS011;44912;52.754;5.994;2023-04-27T09:28:28;6.00;;;2.13;;
59127;SDS011;44912;52.754;5.994;2023-04-27T09:30:58;5.93;;;2.58;;
59127;SDS011;44912;52.754;5.994;2023-04-27T09:33:28;6.07;;;2.63;;
59127;SDS011;44912;52.754;5.994;2023-04-27T09:35:58;5.97;;;2.45;;
59127;SDS011;44912;52.754;5.994;2023-04-27T09:38:28;5.90;;;2.22;;
59127;SDS011;44912;52.754;5.994;2023-04-27T09:40:55;6.05;;;2.55;;
59127;SDS011;44912;52.754;5.994;2023-04-27T09:43:21;6.70;;;2.47;;
59127;SDS011;44912;52.754;5.994;2023-04-27T09:45:48;4.90;;;2.47;;
59127;SDS011;44912;52.754;5.994;2023-04-27T09:48:14;5.03;;;2.40;;
59127;SDS011;44912;52.754;5.994;2023-04-27T09:50:42;6.05;;;2.63;;
59127;SDS011;44912;52.754;5.994;2023-04-27T09:53:09;4.60;;;2.40;;
59127;SDS011;44912;52.754;5.994;2023-04-27T09:55:38;6.47;;;2.53;;
59127;SDS011;44912;52.754;5.994;2023-04-27T09:58:16;6.22;;;2.58;;
59127;SDS011;44912;52.754;5.994;2023-04-27T10:01:37;7.95;;;2.80;;
59127;SDS011;44912;52.754;5.994;2023-04-27T10:04:01;6.60;;;2.70;;
59127;SDS011;44912;52.754;5.994;2023-04-27T10:06:57;4.88;;;2.50;;
59127;SDS011;44912;52.754;5.994;2023-04-27T10:09:35;5.78;;;2.40;;
59127;SDS011;44912;52.754;5.994;2023-04-27T10:12:21;6.80;;;2.50;;
59127;SDS011;44912;52.754;5.994;2023-04-27T10:14:55;7.38;;;2.65;;
59127;SDS011;44912;52.754;5.994;2023-04-27T10:19:58;6.40;;;2.72;;
59127;SDS011;44912;52.754;5.994;2023-04-27T10:22:41;5.43;;;2.42;;
59127;SDS011;44912;52.754;5.994;2023-04-27T10:25:16;6.57;;;2.92;;
59127;SDS011;44912;52.754;5.994;2023-04-27T10:30:20;6.65;;;2.92;;
59127;SDS011;44912;52.754;5.994;2023-04-27T10:32:51;6.40;;;2.63;;
59127;SDS011;44912;52.754;5.994;2023-04-27T10:35:21;6.95;;;2.97;;
59127;SDS011;44912;52.754;5.994;2023-04-27T10:38:04;8.15;;;3.08;;
59127;SDS011;44912;52.754;5.994;2023-04-27T10:40:32;7.50;;;3.35;;
59127;SDS011;44912;52.754;5.994;2023-04-27T10:43:06;7.22;;;3.28;;
59127;SDS011;44912;52.754;5.994;2023-04-27T10:45:33;7.93;;;3.22;;
59127;SDS011;44912;52.754;5.994;2023-04-27T10:47:59;9.82;;;3.60;;
59127;SDS011;44912;52.754;5.994;2023-04-27T10:50:25;6.90;;;3.47;;
59127;SDS011;44912;52.754;5.994;2023-04-27T10:52:52;8.10;;;3.15;;
59127;SDS011;44912;52.754;5.994;2023-04-27T10:55:18;10.50;;;3.95;;
59127;SDS011;44912;52.754;5.994;2023-04-27T10:57:52;9.10;;;3.60;;
59127;SDS011;44912;52.754;5.994;2023-04-27T11:02:54;8.52;;;3.25;;
59127;SDS011;44912;52.754;5.994;2023-04-27T11:05:22;8.75;;;3.42;;
59127;SDS011;44912;52.754;5.994;2023-04-27T11:07:50;8.00;;;3.80;;
59127;SDS011;44912;52.754;5.994;2023-04-27T11:10:17;10.65;;;3.80;;
59127;SDS011;44912;52.754;5.994;2023-04-27T11:12:43;7.63;;;3.80;;
59127;SDS011;44912;52.754;5.994;2023-04-27T11:15:09;8.70;;;4.00;;
59127;SDS011;44912;52.754;5.994;2023-04-27T11:17:36;8.38;;;3.80;;
59127;SDS011;44912;52.754;5.994;2023-04-27T11:20:02;8.55;;;4.07;;
59127;SDS011;44912;52.754;5.994;2023-04-27T11:22:42;10.57;;;3.88;;
59127;SDS011;44912;52.754;5.994;2023-04-27T11:25:13;7.80;;;3.92;;
59127;SDS011;44912;52.754;5.994;2023-04-27T11:27:39;7.22;;;3.65;;
59127;SDS011;44912;52.754;5.994;2023-04-27T11:30:06;7.82;;;3.30;;
59127;SDS011;44912;52.754;5.994;2023-04-27T11:32:42;7.72;;;3.60;;
59127;SDS011;44912;52.754;5.994;2023-04-27T11:35:08;7.43;;;3.58;;
59127;SDS011;44912;52.754;5.994;2023-04-27T11:37:34;7.25;;;4.00;;
59127;SDS011;44912;52.754;5.994;2023-04-27T11:40:00;6.32;;;3.53;;
59127;SDS011;44912;52.754;5.994;2023-04-27T11:42:26;7.82;;;3.58;;
59127;SDS011;44912;52.754;5.994;2023-04-27T11:44:53;11.30;;;3.97;;
59127;SDS011;44912;52.754;5.994;2023-04-27T11:47:24;7.28;;;3.72;;
59127;SDS011;44912;52.754;5.994;2023-04-27T11:49:53;9.48;;;4.70;;
59127;SDS011;44912;52.754;5.994;2023-04-27T11:52:20;7.40;;;3.97;;
59127;SDS011;44912;52.754;5.994;2023-04-27T11:54:56;8.23;;;4.28;;
59127;SDS011;44912;52.754;5.994;2023-04-27T11:57:25;9.73;;;4.00;;
59127;SDS011;44912;52.754;5.994;2023-04-27T11:59:53;7.85;;;4.00;;
59127;SDS011;44912;52.754;5.994;2023-04-27T12:02:20;8.88;;;4.18;;
59127;SDS011;44912;52.754;5.994;2023-04-27T12:04:48;7.72;;;3.67;;
59127;SDS011;44912;52.754;5.994;2023-04-27T12:07:14;7.40;;;3.90;;
59127;SDS011;44912;52.754;5.994;2023-04-27T12:09:40;8.95;;;4.05;;
59127;SDS011;44912;52.754;5.994;2023-04-27T12:12:06;8.90;;;4.30;;
59127;SDS011;44912;52.754;5.994;2023-04-27T12:14:32;7.25;;;3.75;;
59127;SDS011;44912;52.754;5.994;2023-04-27T12:16:58;8.35;;;3.63;;
59127;SDS011;44912;52.754;5.994;2023-04-27T12:19:23;8.10;;;3.75;;
59127;SDS011;44912;52.754;5.994;2023-04-27T12:21:52;6.70;;;3.40;;
59127;SDS011;44912;52.754;5.994;2023-04-27T12:24:18;8.27;;;3.90;;
59127;SDS011;44912;52.754;5.994;2023-04-27T12:26:44;8.82;;;3.83;;
59127;SDS011;44912;52.754;5.994;2023-04-27T12:29:10;8.25;;;3.75;;
59127;SDS011;44912;52.754;5.994;2023-04-27T12:31:36;8.70;;;3.63;;
59127;SDS011;44912;52.754;5.994;2023-04-27T12:34:02;7.75;;;3.58;;
59127;SDS011;44912;52.754;5.994;2023-04-27T12:36:28;8.25;;;4.05;;
59127;SDS011;44912;52.754;5.994;2023-04-27T12:38:57;7.65;;;3.63;;
59127;SDS011;44912;52.754;5.994;2023-04-27T12:41:23;6.60;;;3.45;;
59127;SDS011;44912;52.754;5.994;2023-04-27T12:43:49;9.48;;;4.28;;
59127;SDS011;44912;52.754;5.994;2023-04-27T12:46:15;7.72;;;3.97;;
59127;SDS011;44912;52.754;5.994;2023-04-27T12:48:44;7.32;;;3.50;;
59127;SDS011;44912;52.754;5.994;2023-04-27T12:51:10;6.97;;;3.60;;
59127;SDS011;44912;52.754;5.994;2023-04-27T12:53:37;7.93;;;3.50;;
59127;SDS011;44912;52.754;5.994;2023-04-27T12:56:02;7.72;;;3.40;;
59127;SDS011;44912;52.754;5.994;2023-04-27T12:58:28;6.68;;;3.58;;
59127;SDS011;44912;52.754;5.994;2023-04-27T13:00:55;8.77;;;3.00;;
59127;SDS011;44912;52.754;5.994;2023-04-27T13:03:22;7.70;;;3.30;;
59127;SDS011;44912;52.754;5.994;2023-04-27T13:05:48;7.97;;;3.38;;
59127;SDS011;44912;52.754;5.994;2023-04-27T13:08:13;7.85;;;3.53;;
59127;SDS011;44912;52.754;5.994;2023-04-27T13:10:39;7.57;;;3.60;;
59127;SDS011;44912;52.754;5.994;2023-04-27T13:13:06;7.93;;;3.75;;
59127;SDS011;44912;52.754;5.994;2023-04-27T13:15:31;8.38;;;3.63;;
59127;SDS011;44912;52.754;5.994;2023-04-27T13:17:57;9.27;;;3.90;;
59127;SDS011;44912;52.754;5.994;2023-04-27T13:20:23;7.65;;;3.53;;
59127;SDS011;44912;52.754;5.994;2023-04-27T13:22:49;8.05;;;3.50;;
59127;SDS011;44912;52.754;5.994;2023-04-27T13:25:14;8.50;;;4.07;;
59127;SDS011;44912;52.754;5.994;2023-04-27T13:27:41;7.65;;;4.07;;
59127;SDS011;44912;52.754;5.994;2023-04-27T13:30:07;8.18;;;3.75;;
59127;SDS011;44912;52.754;5.994;2023-04-27T13:32:33;7.60;;;4.03;;
59127;SDS011;44912;52.754;5.994;2023-04-27T13:34:58;7.93;;;3.85;;
59127;SDS011;44912;52.754;5.994;2023-04-27T13:37:24;7.95;;;3.83;;
59127;SDS011;44912;52.754;5.994;2023-04-27T13:39:49;8.27;;;3.75;;
59127;SDS011;44912;52.754;5.994;2023-04-27T13:42:15;8.43;;;4.20;;
59127;SDS011;44912;52.754;5.994;2023-04-27T13:44:41;8.95;;;4.10;;
59127;SDS011;44912;52.754;5.994;2023-04-27T13:47:06;9.80;;;4.03;;
59127;SDS011;44912;52.754;5.994;2023-04-27T13:49:32;8.20;;;3.50;;
59127;SDS011;44912;52.754;5.994;2023-04-27T13:51:58;7.20;;;3.60;;
59127;SDS011;44912;52.754;5.994;2023-04-27T13:54:24;9.63;;;3.97;;
59127;SDS011;44912;52.754;5.994;2023-04-27T13:56:49;10.25;;;3.85;;
59127;SDS011;44912;52.754;5.994;2023-04-27T13:59:15;8.18;;;3.60;;
59127;SDS011;44912;52.754;5.994;2023-04-27T14:01:41;8.05;;;3.40;;
59127;SDS011;44912;52.754;5.994;2023-04-27T14:04:06;8.23;;;3.45;;
59127;SDS011;44912;52.754;5.994;2023-04-27T14:06:32;8.45;;;3.45;;
59127;SDS011;44912;52.754;5.994;2023-04-27T14:08:58;9.27;;;3.50;;
59127;SDS011;44912;52.754;5.994;2023-04-27T14:11:23;8.05;;;3.08;;
59127;SDS011;44912;52.754;5.994;2023-04-27T14:13:50;7.68;;;3.08;;
59127;SDS011;44912;52.754;5.994;2023-04-27T14:16:15;6.25;;;3.33;;
59127;SDS011;44912;52.754;5.994;2023-04-27T14:18:41;8.07;;;3.13;;
59127;SDS011;44912;52.754;5.994;2023-04-27T14:21:07;6.13;;;2.80;;
59127;SDS011;44912;52.754;5.994;2023-04-27T14:23:32;6.20;;;2.95;;
59127;SDS011;44912;52.754;5.994;2023-04-27T14:25:59;5.93;;;2.83;;
59127;SDS011;44912;52.754;5.994;2023-04-27T14:28:24;6.55;;;2.63;;
59127;SDS011;44912;52.754;5.994;2023-04-27T14:30:50;5.03;;;2.40;;
59127;SDS011;44912;52.754;5.994;2023-04-27T14:33:16;6.93;;;2.85;;
59127;SDS011;44912;52.754;5.994;2023-04-27T14:35:42;7.93;;;2.83;;
59127;SDS011;44912;52.754;5.994;2023-04-27T14:38:07;6.43;;;2.70;;
59127;SDS011;44912;52.754;5.994;2023-04-27T14:40:33;6.25;;;3.05;;
59127;SDS011;44912;52.754;5.994;2023-04-27T14:42:59;7.00;;;2.80;;
59127;SDS011;44912;52.754;5.994;2023-04-27T14:45:24;8.10;;;2.80;;
59127;SDS011;44912;52.754;5.994;2023-04-27T14:47:50;6.70;;;3.00;;